createdAt,value
2022-11-24T00:01:12.186Z,82.45
2022-11-24T00:03:45.290Z,82.70
2022-11-24T00:06:18.372Z,82.58
2022-11-24T00:08:51.318Z,82.59
2022-11-24T00:11:25.926Z,83.17
2022-11-24T00:14:00.424Z,82.62
2022-11-24T00:16:35.215Z,82.66
2022-11-24T00:19:10.232Z,82.77
2022-11-24T00:21:42.979Z,83.33
2022-11-24T00:24:15.718Z,82.72
2022-11-24T00:26:48.591Z,82.49
2022-11-24T00:29:22.626Z,82.60
2022-11-24T00:31:57.654Z,83.07
2022-11-24T00:34:30.578Z,82.73
2022-11-24T00:37:03.346Z,82.47
2022-11-24T00:39:36.101Z,82.42
2022-11-24T00:42:08.836Z,82.27
2022-11-24T00:44:42.917Z,82.33
2022-11-24T00:47:15.925Z,82.49
2022-11-24T00:49:49.017Z,82.38
2022-11-24T00:52:21.750Z,82.69
2022-11-24T00:54:54.461Z,82.97
2022-11-24T00:57:27.313Z,82.64
2022-11-24T01:00:01.413Z,82.66
2022-11-24T01:02:34.212Z,83.00
2022-11-24T01:05:07.912Z,83.20
2022-11-24T01:07:40.672Z,82.75
2022-11-24T01:10:13.402Z,82.95
2022-11-24T01:12:46.142Z,82.82
2022-11-24T01:15:20.394Z,82.67
2022-11-24T01:17:53.142Z,82.62
2022-11-24T01:20:25.860Z,82.79
2022-11-24T01:22:58.718Z,82.53
2022-11-24T01:25:31.446Z,83.06
2022-11-24T01:28:04.220Z,82.40
2022-11-24T01:30:38.306Z,82.33
2022-11-24T01:33:11.135Z,82.75
2022-11-24T01:35:44.190Z,82.84
2022-11-24T01:38:16.911Z,82.66
2022-11-24T01:40:50.262Z,82.69
2022-11-24T01:43:23.439Z,82.36
2022-11-24T01:45:59.985Z,82.38
2022-11-24T01:48:38.174Z,82.89
2022-11-24T01:51:14.684Z,82.17
2022-11-24T01:53:52.967Z,81.96
2022-11-24T01:56:26.549Z,82.26
2022-11-24T01:59:02.440Z,81.05
2022-11-24T02:01:36.606Z,81.65
2022-11-24T02:04:15.328Z,81.87
2022-11-24T02:06:49.169Z,81.88
2022-11-24T02:09:27.180Z,81.35
2022-11-24T02:12:01.985Z,81.59
2022-11-24T02:14:37.813Z,81.08
2022-11-24T02:17:12.335Z,81.11
2022-11-24T02:19:53.042Z,81.19
2022-11-24T02:22:34.656Z,81.13
2022-11-24T02:25:16.484Z,80.64
2022-11-24T02:27:54.056Z,80.18
2022-11-24T02:30:27.515Z,80.26
2022-11-24T02:33:00.241Z,79.83
2022-11-24T02:35:33.492Z,79.98
2022-11-24T02:38:06.408Z,79.54
2022-11-24T02:40:39.802Z,79.85
2022-11-24T02:43:16.278Z,80.22
2022-11-24T02:45:49.267Z,79.95
2022-11-24T02:48:21.989Z,80.16
2022-11-24T02:50:55.060Z,79.29
2022-11-24T02:53:27.772Z,79.30
2022-11-24T02:56:00.538Z,79.90
2022-11-24T02:58:35.007Z,79.45
2022-11-24T03:01:07.856Z,79.82
2022-11-24T03:03:40.756Z,79.44
2022-11-24T03:06:13.770Z,79.58
2022-11-24T03:08:46.479Z,80.11
2022-11-24T03:11:19.408Z,79.99
2022-11-24T03:13:53.734Z,80.27
2022-11-24T03:16:26.581Z,80.83
2022-11-24T03:18:59.520Z,80.59
2022-11-24T03:21:32.437Z,80.44
2022-11-24T03:24:06.101Z,80.68
2022-11-24T03:26:39.035Z,80.36
2022-11-24T03:29:13.395Z,80.13
2022-11-24T03:31:46.274Z,80.44
2022-11-24T03:34:19.230Z,79.71
2022-11-24T03:36:51.963Z,80.27
2022-11-24T03:39:24.797Z,79.35
2022-11-24T03:41:57.507Z,79.76
2022-11-24T03:44:31.844Z,79.46
2022-11-24T03:47:04.832Z,79.40
2022-11-24T03:49:37.600Z,79.38
2022-11-24T03:52:10.426Z,79.27
2022-11-24T03:54:43.364Z,79.66
2022-11-24T03:57:16.276Z,79.33
2022-11-24T03:59:50.446Z,79.72
2022-11-24T04:02:23.268Z,79.18
2022-11-24T04:04:56.104Z,79.07
2022-11-24T04:07:29.002Z,78.84
2022-11-24T04:10:01.936Z,79.06
2022-11-24T04:12:46.979Z,79.15
2022-11-24T04:15:20.551Z,78.75
2022-11-24T04:17:56.276Z,77.71
2022-11-24T04:20:29.165Z,78.58
2022-11-24T04:23:02.661Z,78.41
2022-11-24T04:25:35.550Z,78.77
2022-11-24T04:28:08.336Z,78.45
2022-11-24T04:30:44.525Z,77.77
2022-11-24T04:33:17.621Z,78.57
2022-11-24T04:35:54.136Z,78.36
2022-11-24T04:39:24.143Z,78.16
2022-11-24T04:41:19.729Z,78.48
2022-11-24T04:43:52.815Z,78.14
2022-11-24T04:46:27.344Z,78.16
2022-11-24T04:49:00.100Z,78.20
2022-11-24T04:51:32.941Z,77.75
2022-11-24T04:54:10.207Z,77.38
2022-11-24T04:56:43.923Z,77.54
2022-11-24T04:59:17.011Z,77.84
2022-11-24T05:01:51.251Z,77.83
2022-11-24T05:04:24.588Z,78.83
2022-11-24T05:06:57.464Z,78.00
2022-11-24T05:09:54.967Z,78.67
2022-11-24T05:12:24.468Z,79.91
2022-11-24T05:14:57.264Z,80.71
2022-11-24T05:17:33.244Z,81.45
2022-11-24T05:20:07.922Z,81.76
2022-11-24T05:22:40.815Z,82.04
2022-11-24T05:25:14.259Z,82.45
2022-11-24T05:27:47.053Z,82.60
2022-11-24T05:30:19.911Z,82.60
2022-11-24T05:32:54.060Z,82.88
2022-11-24T05:35:26.834Z,83.32
2022-11-24T05:37:59.926Z,82.80
2022-11-24T05:40:32.906Z,82.51
2022-11-24T05:43:05.670Z,82.96
2022-11-24T05:45:38.561Z,82.96
2022-11-24T05:48:14.749Z,82.99
2022-11-24T05:50:54.192Z,83.03
2022-11-24T05:53:27.299Z,83.25
2022-11-24T05:56:00.286Z,82.74
2022-11-24T05:58:33.032Z,82.30
2022-11-24T06:01:07.311Z,82.58
2022-11-24T06:03:41.513Z,83.15
2022-11-24T06:06:14.271Z,82.41
2022-11-24T06:08:47.044Z,82.30
2022-11-24T06:11:19.961Z,81.95
2022-11-24T06:13:55.500Z,82.73
2022-11-24T06:16:28.426Z,82.33
2022-11-24T06:19:02.678Z,82.88
2022-11-24T06:21:35.482Z,82.97
2022-11-24T06:24:09.224Z,82.62
2022-11-24T06:26:42.104Z,82.61
2022-11-24T06:29:14.867Z,82.22
2022-11-24T06:31:47.712Z,83.19
2022-11-24T06:34:21.870Z,82.54
2022-11-24T06:36:54.737Z,82.74
2022-11-24T06:39:27.656Z,82.40
2022-11-24T06:42:00.390Z,82.37
2022-11-24T06:44:33.391Z,81.34
2022-11-24T06:47:06.654Z,82.26
2022-11-24T06:49:41.137Z,81.80
2022-11-24T06:52:13.970Z,81.45
2022-11-24T06:54:46.703Z,81.55
2022-11-24T06:57:19.471Z,80.94
2022-11-24T06:59:52.230Z,80.83
2022-11-24T07:02:25.086Z,80.57
2022-11-24T07:04:59.192Z,81.30
2022-11-24T07:07:32.038Z,80.71
2022-11-24T07:10:05.443Z,79.80
2022-11-24T07:12:38.236Z,80.12
2022-11-24T07:15:12.401Z,80.21
2022-11-24T07:17:45.139Z,79.54
2022-11-24T07:20:19.511Z,79.46
2022-11-24T07:22:56.149Z,79.35
2022-11-24T07:25:29.300Z,79.43
2022-11-24T07:28:02.225Z,79.22
2022-11-24T07:30:35.340Z,78.97
2022-11-24T07:33:08.084Z,77.64
2022-11-24T07:35:42.199Z,78.22
2022-11-24T07:38:14.980Z,77.33
2022-11-24T07:40:48.003Z,76.53
2022-11-24T07:43:20.745Z,77.09
2022-11-24T07:45:55.629Z,76.69
2022-11-24T07:48:28.753Z,76.44
2022-11-24T07:51:04.211Z,75.96
2022-11-24T07:53:37.903Z,76.38
2022-11-24T07:56:11.045Z,75.73
2022-11-24T07:58:48.316Z,76.12
2022-11-24T08:01:25.705Z,75.86
2022-11-24T08:04:02.392Z,75.44
2022-11-24T08:06:41.904Z,75.15
2022-11-24T08:09:17.390Z,74.33
2022-11-24T08:11:50.213Z,74.90
2022-11-24T08:14:22.968Z,75.50
2022-11-24T08:16:55.773Z,75.07
2022-11-24T08:19:28.627Z,74.65
2022-11-24T08:22:02.786Z,73.96
2022-11-24T08:24:35.888Z,74.83
2022-11-24T08:27:08.863Z,74.23
2022-11-24T08:29:41.744Z,73.87
2022-11-24T08:32:18.970Z,74.12
2022-11-24T08:34:59.648Z,73.67
2022-11-24T08:37:33.807Z,73.84
2022-11-24T08:40:07.847Z,74.35
2022-11-24T08:42:40.720Z,74.08
2022-11-24T08:45:21.043Z,74.44
2022-11-24T08:47:55.014Z,74.57
2022-11-24T08:50:27.803Z,74.49
2022-11-24T08:53:01.978Z,73.87
2022-11-24T08:55:34.877Z,74.17
2022-11-24T08:58:07.739Z,74.54
2022-11-24T09:00:40.516Z,73.87
2022-11-24T09:03:13.710Z,74.31
2022-11-24T09:05:53.679Z,73.71
2022-11-24T09:08:27.823Z,74.20
2022-11-24T09:11:01.502Z,73.71
2022-11-24T09:13:34.563Z,73.27
2022-11-24T09:16:10.441Z,74.21
2022-11-24T09:18:43.487Z,74.08
2022-11-24T09:21:18.126Z,73.90
2022-11-24T09:23:53.886Z,74.27
2022-11-24T09:26:29.049Z,74.29
2022-11-24T09:29:03.508Z,73.93
2022-11-24T09:31:39.078Z,73.60
2022-11-24T09:34:14.726Z,73.20
2022-11-24T09:36:47.525Z,73.65
2022-11-24T09:39:21.809Z,73.67
2022-11-24T09:42:16.025Z,73.87
2022-11-24T09:45:12.477Z,73.50
2022-11-24T09:47:59.084Z,74.00
2022-11-24T09:50:34.931Z,73.87
2022-11-24T09:53:15.520Z,74.27
2022-11-24T09:55:51.793Z,74.53
2022-11-24T09:58:44.098Z,74.30
2022-11-24T10:01:19.004Z,73.96
2022-11-24T10:03:53.588Z,74.13
2022-11-24T10:06:30.465Z,73.83
2022-11-24T10:09:25.375Z,74.04
2022-11-24T10:12:14.252Z,73.93
2022-11-24T10:15:12.326Z,73.81
2022-11-24T10:18:02.908Z,73.89
2022-11-24T10:20:49.781Z,73.13
2022-11-24T10:23:40.766Z,73.65
2022-11-24T10:26:20.341Z,73.55
2022-11-24T10:28:56.362Z,73.77
2022-11-24T10:31:33.738Z,73.29
2022-11-24T10:34:14.356Z,72.76
2022-11-24T10:36:51.182Z,72.87
2022-11-24T10:39:32.059Z,72.49
2022-11-24T10:42:12.191Z,73.22
2022-11-24T10:44:46.479Z,73.82
2022-11-24T10:47:22.537Z,74.21
2022-11-24T10:49:59.506Z,74.39
2022-11-24T10:52:37.748Z,73.97
2022-11-24T10:55:10.937Z,73.44
2022-11-24T10:57:45.099Z,73.50
2022-11-24T11:00:35.826Z,73.78
2022-11-24T11:03:17.790Z,73.11
2022-11-24T11:05:54.802Z,72.46
2022-11-24T11:08:30.145Z,72.48
2022-11-24T11:11:20.517Z,72.21
2022-11-24T11:14:02.929Z,72.11
2022-11-24T11:16:39.623Z,72.79
2022-11-24T11:19:48.353Z,71.76
2022-11-24T11:22:28.177Z,71.87
2022-11-24T11:25:19.376Z,72.25
2022-11-24T11:27:52.184Z,71.09
2022-11-24T11:36:17.432Z,70.90
2022-11-24T11:38:50.274Z,71.39
2022-11-24T11:41:29.283Z,71.24
2022-11-24T11:44:13.055Z,71.93
2022-11-24T11:46:46.769Z,71.58
2022-11-24T11:49:20.987Z,72.00
2022-11-24T11:52:17.560Z,72.05
2022-11-24T11:55:10.770Z,71.97
2022-11-24T11:57:51.536Z,70.54
2022-11-24T12:00:24.833Z,68.73
2022-11-24T12:03:24.445Z,69.46
2022-11-24T12:06:15.242Z,68.05
2022-11-24T12:09:19.128Z,69.29
2022-11-24T12:12:07.282Z,68.47
2022-11-24T12:14:51.419Z,68.07
2022-11-24T12:17:33.423Z,68.72
2022-11-24T12:20:36.533Z,67.99
2022-11-24T12:23:21.559Z,67.88
2022-11-24T12:26:01.530Z,67.71
2022-11-24T12:28:47.008Z,68.03
2022-11-24T12:31:31.227Z,68.31
2022-11-24T12:34:25.400Z,68.44
2022-11-24T12:37:25.361Z,68.17
2022-11-24T12:40:05.776Z,68.40
2022-11-24T12:42:46.335Z,68.34
2022-11-24T12:45:24.097Z,67.71
2022-11-24T12:48:16.295Z,67.83
2022-11-24T12:50:50.908Z,67.44
2022-11-24T12:53:27.118Z,67.09
2022-11-24T12:56:08.875Z,66.52
2022-11-24T12:58:50.218Z,65.56
2022-11-24T13:01:32.648Z,65.64
2022-11-24T13:04:16.212Z,65.94
2022-11-24T13:06:54.790Z,65.01
2022-11-24T13:09:27.595Z,65.14
2022-11-24T13:12:13.210Z,65.47
2022-11-24T13:14:48.862Z,64.50
2022-11-24T13:20:27.109Z,65.25
2022-11-24T13:23:03.357Z,63.80
2022-11-24T13:25:36.975Z,64.43
2022-11-24T13:29:03.175Z,64.71
2022-11-24T13:31:38.875Z,64.18
2022-11-24T13:34:42.509Z,64.52
2022-11-24T13:37:31.221Z,64.10
2022-11-24T13:40:43.136Z,65.01
2022-11-24T13:43:30.019Z,64.60
2022-11-24T13:46:03.682Z,64.74
2022-11-24T13:49:00.883Z,66.08
2022-11-24T13:51:33.677Z,63.88
2022-11-24T13:54:11.340Z,64.63
2022-11-24T13:56:44.120Z,64.05
2022-11-24T13:59:28.800Z,63.69
2022-11-24T14:02:02.025Z,63.31
2022-11-24T14:04:39.352Z,63.65
2022-11-24T14:07:15.443Z,62.90
2022-11-24T14:09:51.620Z,63.02
2022-11-24T14:12:31.265Z,62.86
2022-11-24T14:15:23.263Z,63.80
2022-11-24T14:17:56.310Z,62.29
2022-11-24T14:20:29.943Z,62.01
2022-11-24T14:23:02.728Z,63.19
2022-11-24T14:25:35.887Z,63.02
2022-11-24T14:28:20.931Z,62.07
2022-11-24T14:31:08.060Z,62.30
2022-11-24T14:33:41.153Z,61.57
2022-11-24T14:36:15.807Z,61.52
2022-11-24T14:38:48.629Z,62.94
2022-11-24T14:41:26.004Z,60.63
2022-11-24T14:44:06.862Z,60.49
2022-11-24T14:46:41.621Z,60.07
2022-11-24T14:49:20.072Z,58.16
2022-11-24T14:51:57.287Z,58.52
2022-11-24T14:54:31.735Z,57.79
2022-11-24T14:57:06.438Z,58.33
2022-11-24T14:59:39.480Z,59.96
2022-11-24T15:02:51.929Z,60.49
2022-11-24T15:05:27.244Z,61.27
2022-11-24T15:08:03.486Z,61.99
2022-11-24T15:10:40.608Z,62.90
2022-11-24T15:13:19.330Z,64.81
2022-11-24T15:16:02.052Z,63.70
2022-11-24T15:18:40.396Z,65.05
2022-11-24T15:21:19.253Z,65.36
2022-11-24T15:24:06.826Z,65.97
2022-11-24T15:26:42.219Z,66.14
2022-11-24T15:29:15.277Z,65.98
2022-11-24T15:31:52.557Z,66.13
2022-11-24T15:34:25.759Z,67.35
2022-11-24T15:36:59.843Z,67.53
2022-11-24T15:39:32.570Z,67.74
2022-11-24T15:42:05.663Z,67.53
2022-11-24T15:44:38.597Z,68.18
2022-11-24T15:47:11.456Z,68.38
2022-11-24T15:49:44.301Z,68.41
2022-11-24T15:52:20.499Z,69.36
2022-11-24T15:54:57.141Z,69.54
2022-11-24T15:57:29.879Z,69.16
2022-11-24T16:00:03.406Z,69.45
2022-11-24T16:02:44.973Z,69.91
2022-11-24T16:05:18.746Z,70.18
2022-11-24T16:07:52.924Z,70.20
2022-11-24T16:10:28.731Z,70.44
2022-11-24T16:13:01.625Z,70.81
2022-11-24T16:15:34.713Z,70.94
2022-11-24T16:18:08.636Z,71.08
2022-11-24T16:20:41.555Z,71.17
2022-11-24T16:23:15.676Z,71.60
2022-11-24T16:25:48.638Z,72.26
2022-11-24T16:28:21.588Z,72.13
2022-11-24T16:30:54.438Z,74.25
2022-11-24T16:33:29.111Z,73.08
2022-11-24T16:36:01.875Z,74.13
2022-11-24T16:38:36.118Z,72.92
2022-11-24T16:41:10.204Z,73.10
2022-11-24T16:43:43.275Z,73.63
2022-11-24T16:46:19.693Z,73.32
2022-11-24T16:48:54.885Z,74.63
2022-11-24T16:51:34.405Z,74.69
2022-11-24T16:54:10.107Z,73.94
2022-11-24T16:56:42.968Z,74.07
2022-11-24T16:59:15.735Z,74.56
2022-11-24T17:01:50.646Z,74.34
2022-11-24T17:04:23.446Z,75.96
2022-11-24T17:06:58.271Z,77.20
2022-11-24T17:09:37.358Z,77.63
2022-11-24T17:12:13.087Z,77.98
2022-11-24T17:15:03.052Z,77.46
2022-11-24T17:17:50.000Z,77.64
2022-11-24T17:20:31.677Z,77.05
2022-11-24T17:23:04.450Z,78.63
2022-11-24T17:25:38.553Z,76.85
2022-11-24T17:28:11.510Z,78.69
2022-11-24T17:30:44.298Z,78.87
2022-11-24T17:33:17.396Z,77.58
2022-11-24T17:35:50.191Z,79.67
2022-11-24T17:38:23.269Z,80.02
2022-11-24T17:40:57.417Z,78.49
2022-11-24T17:43:30.277Z,78.45
2022-11-24T17:46:04.743Z,81.09
2022-11-24T17:48:37.885Z,80.93
2022-11-24T17:51:13.246Z,81.28
2022-11-24T17:53:49.202Z,80.43
2022-11-24T17:56:25.036Z,81.81
2022-11-24T17:58:59.935Z,82.13
2022-11-24T18:01:33.060Z,82.03
2022-11-24T18:04:06.185Z,81.66
2022-11-24T18:06:39.191Z,81.75
2022-11-24T18:09:12.237Z,82.13
2022-11-24T18:11:47.667Z,82.63
2022-11-24T18:14:20.447Z,82.65
2022-11-24T18:16:53.398Z,83.45
2022-11-24T18:19:27.568Z,82.60
2022-11-24T18:22:00.329Z,82.71
2022-11-24T18:24:33.507Z,82.92
2022-11-24T18:27:07.656Z,81.71
2022-11-24T18:29:43.423Z,81.68
2022-11-24T18:32:16.314Z,81.14
2022-11-24T18:34:50.943Z,80.11
2022-11-24T18:37:23.741Z,80.37
2022-11-24T18:39:56.622Z,79.76
2022-11-24T18:42:30.950Z,80.29
2022-11-24T18:45:04.265Z,79.27
2022-11-24T18:47:37.072Z,78.11
2022-11-24T18:50:10.523Z,78.50
2022-11-24T18:52:43.285Z,78.14
2022-11-24T18:55:16.328Z,78.50
2022-11-24T18:57:50.508Z,77.89
2022-11-24T19:00:23.928Z,77.62
2022-11-24T19:02:56.869Z,77.68
2022-11-24T19:05:30.039Z,77.60
2022-11-24T19:08:02.910Z,77.42
2022-11-24T19:10:37.212Z,77.36
2022-11-24T19:13:12.807Z,78.28
2022-11-24T19:15:45.606Z,77.82
2022-11-24T19:18:18.529Z,78.03
2022-11-24T19:20:51.549Z,77.82
2022-11-24T19:23:25.264Z,77.82
2022-11-24T19:26:00.861Z,78.25
2022-11-24T19:28:35.455Z,77.71
2022-11-24T19:31:11.275Z,77.71
2022-11-24T19:33:44.355Z,77.58
2022-11-24T19:36:19.388Z,77.87
2022-11-24T19:38:53.683Z,77.39
2022-11-24T19:41:28.457Z,77.54
2022-11-24T19:44:03.180Z,76.94
2022-11-24T19:46:36.065Z,77.35
2022-11-24T19:49:09.472Z,77.42
2022-11-24T19:51:42.287Z,77.15
2022-11-24T19:54:15.121Z,77.17
2022-11-24T19:56:48.258Z,76.88
2022-11-24T19:59:23.475Z,77.29
2022-11-24T20:01:56.558Z,77.34
2022-11-24T20:04:29.447Z,76.47
2022-11-24T20:07:02.362Z,77.13
2022-11-24T20:09:35.540Z,76.81
2022-11-24T20:12:09.729Z,76.67
2022-11-24T20:14:43.890Z,76.75
2022-11-24T20:17:16.744Z,76.76
2022-11-24T20:19:49.513Z,77.05
2022-11-24T20:22:22.302Z,76.06
2022-11-24T20:24:57.095Z,76.53
2022-11-24T20:27:29.863Z,77.09
2022-11-24T20:30:04.460Z,76.92
2022-11-24T20:32:37.586Z,76.50
2022-11-24T20:35:16.619Z,76.25
2022-11-24T20:37:50.925Z,76.81
2022-11-24T20:40:23.738Z,76.73
2022-11-24T20:42:56.544Z,76.58
2022-11-24T20:45:30.986Z,76.93
2022-11-24T20:48:03.917Z,77.08
2022-11-24T20:50:37.906Z,77.00
2022-11-24T20:53:10.782Z,77.34
2022-11-24T20:55:43.632Z,77.37
2022-11-24T20:58:16.445Z,76.83
2022-11-24T21:00:51.055Z,76.89
2022-11-24T21:03:23.933Z,77.53
2022-11-24T21:05:57.581Z,76.90
2022-11-24T21:08:32.960Z,77.02
2022-11-24T21:11:08.089Z,77.53
2022-11-24T21:13:42.848Z,78.61
2022-11-24T21:16:18.465Z,77.70
2022-11-24T21:18:52.748Z,78.66
2022-11-24T21:21:26.704Z,80.64
2022-11-24T21:23:59.905Z,78.96
2022-11-24T21:26:35.120Z,78.59
2022-11-24T21:29:08.971Z,78.96
2022-11-24T21:31:43.415Z,80.88
2022-11-24T21:34:18.518Z,78.71
2022-11-24T21:36:51.298Z,79.18
2022-11-24T21:39:24.089Z,79.43
2022-11-24T21:41:56.871Z,80.20
2022-11-24T21:44:32.098Z,78.66
2022-11-24T21:47:06.901Z,79.20
2022-11-24T21:49:39.779Z,79.22
2022-11-24T21:52:12.551Z,80.32
2022-11-24T21:54:45.340Z,79.84
2022-11-24T21:57:18.438Z,79.84
2022-11-24T21:59:51.345Z,79.85
2022-11-24T22:02:25.500Z,80.12
2022-11-24T22:04:58.372Z,79.36
2022-11-24T22:07:32.168Z,79.63
2022-11-24T22:10:05.680Z,79.13
2022-11-24T22:12:38.453Z,79.14
2022-11-24T22:15:11.731Z,78.85
2022-11-24T22:17:45.901Z,78.59
2022-11-24T22:20:18.718Z,80.15
2022-11-24T22:22:51.503Z,80.11
2022-11-24T22:25:25.451Z,80.26
2022-11-24T22:27:59.078Z,79.43
2022-11-24T22:30:31.931Z,78.91
2022-11-24T22:33:06.191Z,79.13
2022-11-24T22:35:38.959Z,79.25
2022-11-24T22:38:11.725Z,79.89
2022-11-24T22:40:44.836Z,78.71
2022-11-24T22:43:22.698Z,78.98
2022-11-24T22:45:55.846Z,80.34
2022-11-24T22:48:30.103Z,80.70
2022-11-24T22:51:07.795Z,79.80
2022-11-24T22:53:40.892Z,80.94
2022-11-24T22:56:13.799Z,80.27
2022-11-24T22:58:47.068Z,79.93
2022-11-24T23:01:22.337Z,81.70
2022-11-24T23:03:56.729Z,82.76
2022-11-24T23:06:31.768Z,82.01
2022-11-24T23:09:05.072Z,82.18
2022-11-24T23:11:39.452Z,82.06
2022-11-24T23:14:14.788Z,81.64
2022-11-24T23:16:47.628Z,82.78
2022-11-24T23:19:21.752Z,82.67
2022-11-24T23:21:54.523Z,82.62
2022-11-24T23:24:27.294Z,82.77
2022-11-24T23:27:00.052Z,83.41
2022-11-24T23:29:32.890Z,83.61
2022-11-24T23:32:06.200Z,83.44
2022-11-24T23:34:40.787Z,83.84
2022-11-24T23:37:13.588Z,83.28
2022-11-24T23:39:46.547Z,83.78
2022-11-24T23:42:19.470Z,84.01
2022-11-24T23:44:52.291Z,84.07
2022-11-24T23:47:25.081Z,83.72
2022-11-24T23:49:59.253Z,83.31
2022-11-24T23:52:32.077Z,83.75
2022-11-24T23:55:05.634Z,84.22
2022-11-24T23:57:38.611Z,84.50
